Tisbury, United Kingdom
Current Conditions -  °F | °C
As of 12:50 PM on Tuesday 21 Oct 2014 (Local Time) from EGDM Reporting Station
Scattered Clouds Scattered Clouds  
Wind Chill: 55°   Ceiling: Unl
Heat Index: 55°   Visibility: 6mi
Dew Point: 43°   Wind: 31mph
Humidity: 63%   Direction: 280°W
Pressure: 29.77"   Gusts: 43mph
Location:  51.06°N, 2.08°W
Report Text: EGDM 211150Z 28027G37KT 9999 SCT036 13/06 Q1008 BLU NOSIG
Loading
Personal Weather Stations






























Interactive Weather Map
Tropical Storm Tracking
New forecast layout! Learn more

10-Day Weather Forecast

Advertisements
Track Severe Weather on mobile